Terminal Aerodrome Forecast
Issued by NWS

Current Version | Previous Version | Text Only | Print | Product List | Glossary On
Versions: 1 2 3 4 5 6 7 8 9 10 11 12 13 14 15 16
000
FTUS44 KSJT 301100
TAFJCT
TAF
KJCT 301125Z 3012/3112 VRB04KT P6SM FEW080
      TEMPO 3012/3014 SCT020
     FM301700 09007KT P6SM SCT060
     FM310300 15005KT P6SM BKN100=

USA.gov is the U.S. government's official web portal to all federal, state and local government web resources and services.